Time;durP1;ratioP1;P1;durP2;ratioP2;P2;SDS_P1;SDS_P2;PMS_P1;PMS_P2;Temp;Humidity;BMP_temperature;BMP_pressure;BME280_temperature;BME280_humidity;BME280_pressure;Samples;Min_cycle;Max_cycle;Signal;HPM_P1;HPM_P2
2021/07/09 00:01:22;;;;;;;9.25;4.25;;;16.30;99.90;;;;;;5078718;28;20027;-72
2021/07/09 00:03:48;;;;;;;8.02;3.65;;;16.30;99.90;;;;;;5082281;28;20062;-72
2021/07/09 00:06:13;;;;;;;9.93;3.75;;;16.20;99.90;;;;;;5079998;28;20097;-72
2021/07/09 00:08:40;;;;;;;11.00;4.15;;;16.20;99.90;;;;;;5060129;28;20183;-71
2021/07/09 00:11:05;;;;;;;9.27;4.22;;;16.20;99.90;;;;;;5079970;28;20082;-72
2021/07/09 00:13:31;;;;;;;10.63;3.88;;;16.10;99.90;;;;;;5059970;28;20452;-72
2021/07/09 00:15:57;;;;;;;8.98;3.88;;;16.10;99.90;;;;;;5062846;28;20036;-72
2021/07/09 00:18:23;;;;;;;7.10;3.50;;;16.10;99.90;;;;;;5078950;28;20081;-72
2021/07/09 00:20:48;;;;;;;18.40;4.72;;;16.00;99.90;;;;;;5079714;28;20029;-71
2021/07/09 00:23:14;;;;;;;11.15;4.00;;;16.00;99.90;;;;;;5081035;28;20090;-72
2021/07/09 00:25:40;;;;;;;9.05;3.72;;;16.00;99.90;;;;;;5080772;28;20067;-72
2021/07/09 00:28:06;;;;;;;8.38;3.72;;;15.90;99.90;;;;;;5081639;28;20039;-72
2021/07/09 00:30:31;;;;;;;9.18;4.18;;;15.90;99.90;;;;;;5073453;28;20033;-71
2021/07/09 00:32:57;;;;;;;7.10;4.30;;;15.90;99.90;;;;;;5082198;28;20036;-72
2021/07/09 00:35:23;;;;;;;7.28;3.47;;;15.80;99.90;;;;;;5079524;28;20040;-72
2021/07/09 00:37:48;;;;;;;8.07;4.57;;;15.80;99.90;;;;;;5079475;28;20437;-71
2021/07/09 00:40:14;;;;;;;12.07;4.30;;;15.70;99.90;;;;;;5074591;28;20039;-71
2021/07/09 00:42:40;;;;;;;13.15;4.55;;;15.70;99.90;;;;;;5061856;28;20036;-72
2021/07/09 00:45:07;;;;;;;10.75;4.90;;;15.70;99.90;;;;;;5077659;28;20031;-72
2021/07/09 00:47:33;;;;;;;11.10;4.88;;;15.70;99.90;;;;;;5062805;28;20756;-71
2021/07/09 00:49:59;;;;;;;10.20;4.88;;;15.70;99.90;;;;;;5077009;28;20112;-72
2021/07/09 00:52:24;;;;;;;10.93;4.97;;;15.70;99.90;;;;;;5059742;28;20435;-72
2021/07/09 00:54:50;;;;;;;8.95;3.63;;;15.70;99.90;;;;;;5077242;28;20032;-72
2021/07/09 00:57:15;;;;;;;10.73;4.80;;;15.70;99.90;;;;;;5060818;28;20040;-72
2021/07/09 00:59:42;;;;;;;10.40;4.57;;;15.60;99.90;;;;;;5079315;28;20032;-72
2021/07/09 01:02:08;;;;;;;9.57;4.95;;;15.60;99.90;;;;;;5078143;28;20428;-72
2021/07/09 01:04:34;;;;;;;8.45;4.50;;;15.60;99.90;;;;;;5076686;28;20029;-72
2021/07/09 01:06:59;;;;;;;10.18;4.20;;;15.50;99.90;;;;;;5072298;28;20036;-72
2021/07/09 01:09:25;;;;;;;8.68;4.53;;;15.50;99.90;;;;;;5059214;28;20036;-72
2021/07/09 01:11:51;;;;;;;9.82;3.78;;;15.40;99.90;;;;;;5078069;28;20569;-72
2021/07/09 01:14:21;;;;;;;8.13;4.55;;;15.40;99.90;;;;;;5077996;28;20440;-72
2021/07/09 01:16:47;;;;;;;10.65;5.13;;;15.40;99.90;;;;;;5078486;28;20037;-72
2021/07/09 01:19:15;;;;;;;10.50;4.60;;;15.40;99.90;;;;;;5078056;28;20163;-72
2021/07/09 01:21:41;;;;;;;9.38;4.45;;;15.30;99.90;;;;;;5080096;28;20118;-72
2021/07/09 01:24:08;;;;;;;8.13;4.43;;;15.30;99.90;;;;;;5080152;28;20485;-72
2021/07/09 01:26:34;;;;;;;8.63;4.03;;;15.30;99.90;;;;;;5080139;28;20032;-72
2021/07/09 01:29:01;;;;;;;8.02;4.15;;;15.20;99.90;;;;;;5076814;28;20038;-72
2021/07/09 01:31:27;;;;;;;10.18;4.38;;;15.20;99.90;;;;;;5080159;28;20116;-72
2021/07/09 01:33:52;;;;;;;10.07;4.80;;;15.20;99.90;;;;;;5077089;28;20167;-71
2021/07/09 01:36:18;;;;;;;11.32;4.47;;;15.20;99.90;;;;;;5078957;28;20040;-72
2021/07/09 01:38:44;;;;;;;13.43;5.32;;;15.10;99.90;;;;;;5078103;28;20043;-72
2021/07/09 01:41:10;;;;;;;10.93;4.25;;;15.10;99.90;;;;;;5078076;28;20060;-72
2021/07/09 01:43:35;;;;;;;11.43;4.35;;;15.10;99.90;;;;;;5079651;28;20058;-72
2021/07/09 01:46:01;;;;;;;10.32;4.10;;;15.10;99.90;;;;;;5076083;28;20076;-72
2021/07/09 01:48:27;;;;;;;8.60;4.90;;;15.00;99.90;;;;;;5072863;28;20480;-71
2021/07/09 01:50:52;;;;;;;6.32;3.53;;;15.00;99.90;;;;;;5079433;28;20029;-72
2021/07/09 01:53:18;;;;;;;9.07;4.28;;;15.00;99.90;;;;;;5059820;28;20032;-72
2021/07/09 01:55:44;;;;;;;8.52;4.25;;;14.90;99.90;;;;;;5076344;28;20115;-73
2021/07/09 01:58:10;;;;;;;12.50;5.22;;;15.00;99.90;;;;;;5080305;28;20048;-72
2021/07/09 02:00:36;;;;;;;7.68;4.30;;;14.90;99.90;;;;;;5061634;28;20054;-71
2021/07/09 02:03:02;;;;;;;8.63;4.22;;;14.90;99.90;;;;;;5062443;28;20032;-72
2021/07/09 02:05:28;;;;;;;6.88;4.00;;;14.90;99.90;;;;;;5058124;28;20500;-72
2021/07/09 02:07:55;;;;;;;9.95;4.60;;;14.80;99.90;;;;;;5076249;28;20032;-71
2021/07/09 02:10:25;;;;;;;9.50;4.45;;;14.80;99.90;;;;;;5079668;28;20039;-72
2021/07/09 02:12:54;;;;;;;9.30;5.05;;;14.80;99.90;;;;;;5076564;28;20028;-72
2021/07/09 02:15:23;;;;;;;12.52;5.55;;;14.80;99.90;;;;;;5058622;28;20037;-72
2021/07/09 02:17:49;;;;;;;8.15;4.78;;;14.80;99.90;;;;;;5060793;28;20025;-72
2021/07/09 02:20:18;;;;;;;10.05;5.32;;;14.80;99.90;;;;;;5078167;28;20549;-71
2021/07/09 02:22:46;;;;;;;11.02;5.30;;;14.70;99.90;;;;;;5078422;28;20033;-72
2021/07/09 02:25:12;;;;;;;16.25;5.90;;;14.70;99.90;;;;;;5069708;28;20054;-72
2021/07/09 02:27:46;;;;;;;12.98;5.70;;;14.70;99.90;;;;;;5081963;28;20028;-72
2021/07/09 02:30:16;;;;;;;14.95;5.43;;;14.70;99.90;;;;;;5085480;28;20028;-72
2021/07/09 02:32:42;;;;;;;11.68;6.15;;;14.70;99.90;;;;;;5081674;28;20117;-72
2021/07/09 02:35:10;;;;;;;17.35;6.80;;;14.60;99.90;;;;;;5065635;28;20036;-72
2021/07/09 02:37:36;;;;;;;11.45;5.30;;;14.60;99.90;;;;;;5063206;28;20409;-72
2021/07/09 02:40:04;;;;;;;10.77;5.43;;;14.60;99.90;;;;;;5081452;28;20032;-72
2021/07/09 02:42:29;;;;;;;11.50;6.20;;;14.60;99.90;;;;;;5082637;28;20025;-72
2021/07/09 02:44:55;;;;;;;12.38;6.68;;;14.60;99.90;;;;;;5081252;28;20028;-71
2021/07/09 02:47:20;;;;;;;13.50;6.65;;;14.60;99.90;;;;;;5080445;28;20063;-72
2021/07/09 02:49:46;;;;;;;13.90;5.43;;;14.60;99.90;;;;;;5082709;28;20025;-72
2021/07/09 02:52:13;;;;;;;12.73;6.20;;;14.50;99.90;;;;;;5082899;28;20528;-72
2021/07/09 02:54:38;;;;;;;13.65;5.20;;;14.50;99.90;;;;;;5079162;28;20067;-72
2021/07/09 02:57:04;;;;;;;11.38;5.70;;;14.50;99.90;;;;;;5082189;28;20411;-72
2021/07/09 02:59:30;;;;;;;12.48;5.82;;;14.50;99.90;;;;;;5062118;28;20032;-72
2021/07/09 03:01:55;;;;;;;11.80;5.78;;;14.40;99.90;;;;;;5082826;28;20040;-72
2021/07/09 03:04:21;;;;;;;13.00;4.95;;;14.40;99.90;;;;;;5083269;28;20035;-72
2021/07/09 03:06:47;;;;;;;16.80;5.80;;;14.40;99.90;;;;;;5079958;28;20739;-72
2021/07/09 03:09:12;;;;;;;13.43;5.72;;;14.40;99.90;;;;;;5081272;28;20041;-71
2021/07/09 03:11:39;;;;;;;12.98;5.95;;;14.30;99.90;;;;;;5079013;28;20448;-71
2021/07/09 03:14:07;;;;;;;13.73;6.15;;;14.30;99.90;;;;;;5081672;28;20384;-72
2021/07/09 03:16:33;;;;;;;13.15;6.50;;;14.30;99.90;;;;;;5075172;28;20040;-72
2021/07/09 03:18:58;;;;;;;13.27;5.47;;;14.30;99.90;;;;;;5079070;28;20476;-72
2021/07/09 03:21:24;;;;;;;14.95;6.50;;;14.30;99.90;;;;;;5079345;28;20089;-72
2021/07/09 03:23:50;;;;;;;17.75;7.13;;;14.30;99.90;;;;;;5061746;28;20047;-72
2021/07/09 03:26:15;;;;;;;17.25;6.70;;;14.30;99.90;;;;;;5077942;28;20407;-72
2021/07/09 03:28:41;;;;;;;16.40;7.00;;;14.20;99.90;;;;;;5081413;28;20033;-72
2021/07/09 03:31:08;;;;;;;19.27;8.00;;;14.20;99.90;;;;;;5080539;28;20085;-72
2021/07/09 03:33:35;;;;;;;17.60;7.63;;;14.20;99.90;;;;;;5062261;28;20039;-71
2021/07/09 03:36:01;;;;;;;15.02;7.32;;;14.20;99.90;;;;;;5082149;28;20032;-73
2021/07/09 03:38:26;;;;;;;20.27;7.72;;;14.20;99.90;;;;;;5082672;28;20037;-72
2021/07/09 03:40:52;;;;;;;19.92;7.72;;;14.20;99.90;;;;;;5064128;28;20035;-72
2021/07/09 03:43:17;;;;;;;20.70;8.27;;;14.20;99.90;;;;;;5081581;28;20087;-72
2021/07/09 03:45:43;;;;;;;17.00;7.22;;;14.30;99.90;;;;;;5080973;28;20056;-72
2021/07/09 03:48:09;;;;;;;18.00;7.15;;;14.30;99.90;;;;;;5076914;28;20555;-72
2021/07/09 03:50:34;;;;;;;16.23;7.88;;;14.20;99.90;;;;;;5081068;28;20043;-71
2021/07/09 03:53:00;;;;;;;19.92;7.65;;;14.20;99.90;;;;;;5079706;28;20078;-72
2021/07/09 03:55:25;;;;;;;23.23;8.57;;;14.30;99.90;;;;;;5081602;28;20032;-72
2021/07/09 03:57:51;;;;;;;19.95;7.55;;;14.30;99.90;;;;;;5082464;28;20085;-72
2021/07/09 04:00:17;;;;;;;19.00;7.97;;;14.30;99.90;;;;;;5078168;28;20047;-72
2021/07/09 04:02:43;;;;;;;18.67;8.07;;;14.30;99.90;;;;;;5083184;28;20119;-71
2021/07/09 04:05:10;;;;;;;18.83;7.45;;;14.30;99.90;;;;;;5079508;28;20151;-71
2021/07/09 04:07:37;;;;;;;13.05;6.53;;;14.30;99.90;;;;;;5060213;28;20074;-71
2021/07/09 04:10:03;;;;;;;17.95;7.00;;;14.30;99.90;;;;;;5080638;28;20043;-72
2021/07/09 04:12:29;;;;;;;16.73;7.15;;;14.30;99.90;;;;;;5078779;28;20028;-72
2021/07/09 04:14:55;;;;;;;17.58;8.50;;;14.40;99.90;;;;;;5081159;28;20473;-72
2021/07/09 04:17:20;;;;;;;18.38;7.45;;;14.40;99.90;;;;;;5077973;28;20040;-72
2021/07/09 04:19:49;;;;;;;16.02;7.40;;;14.40;99.90;;;;;;5063339;28;20488;-72
2021/07/09 04:22:15;;;;;;;16.55;7.90;;;14.40;99.90;;;;;;5081229;28;20028;-73
2021/07/09 04:24:40;;;;;;;14.73;7.28;;;14.50;99.90;;;;;;5081405;28;20067;-72
2021/07/09 04:27:06;;;;;;;16.63;7.38;;;14.50;99.90;;;;;;5080156;28;20048;-70
2021/07/09 04:29:31;;;;;;;18.80;7.60;;;14.60;99.90;;;;;;5077562;28;20040;-70
2021/07/09 04:31:57;;;;;;;16.48;7.45;;;14.60;99.90;;;;;;5087590;28;20031;-70
2021/07/09 04:34:22;;;;;;;17.48;6.95;;;14.60;99.90;;;;;;5081038;28;20070;-71
2021/07/09 04:36:48;;;;;;;17.73;7.75;;;14.70;99.90;;;;;;5078074;28;20457;-69
2021/07/09 04:39:14;;;;;;;20.90;8.30;;;14.70;99.90;;;;;;5077212;28;20397;-70
2021/07/09 04:41:40;;;;;;;16.88;7.90;;;14.70;99.90;;;;;;5062617;28;20374;-70
2021/07/09 04:44:06;;;;;;;17.60;8.02;;;14.70;99.90;;;;;;5078327;28;20429;-71
2021/07/09 04:46:31;;;;;;;16.23;7.60;;;14.80;99.90;;;;;;5078578;28;20017;-71
2021/07/09 04:48:57;;;;;;;16.75;8.38;;;14.80;99.90;;;;;;5079364;28;20043;-72
2021/07/09 04:51:22;;;;;;;16.00;7.68;;;14.90;99.90;;;;;;5076297;28;20049;-71
2021/07/09 04:53:48;;;;;;;19.52;7.65;;;14.90;99.90;;;;;;5081771;28;20779;-71
2021/07/09 04:56:14;;;;;;;18.80;8.10;;;15.00;99.90;;;;;;5076768;28;20059;-72
2021/07/09 04:58:39;;;;;;;18.15;8.43;;;15.00;99.90;;;;;;5079980;28;20048;-71
2021/07/09 05:01:05;;;;;;;19.90;8.93;;;15.10;99.90;;;;;;5081115;28;20526;-71
2021/07/09 05:03:30;;;;;;;19.63;8.30;;;15.10;99.90;;;;;;5087908;28;20391;-71
2021/07/09 05:05:56;;;;;;;16.02;7.93;;;15.10;99.90;;;;;;5077570;28;20043;-71
2021/07/09 05:08:21;;;;;;;18.98;8.18;;;15.20;99.90;;;;;;5080648;28;20029;-71
2021/07/09 05:10:47;;;;;;;15.07;7.85;;;15.30;99.90;;;;;;5080823;28;20085;-71
2021/07/09 05:13:12;;;;;;;17.77;7.93;;;15.40;99.90;;;;;;5080721;28;20119;-71
2021/07/09 05:15:38;;;;;;;21.10;8.55;;;15.50;99.90;;;;;;5077347;28;20032;-71
2021/07/09 05:18:04;;;;;;;17.77;8.32;;;15.60;99.90;;;;;;5077400;28;20058;-71
2021/07/09 05:20:29;;;;;;;14.88;7.20;;;15.70;99.90;;;;;;5078009;28;20086;-70
2021/07/09 05:22:55;;;;;;;18.98;8.50;;;15.70;99.90;;;;;;5069934;28;20033;-71
2021/07/09 05:25:20;;;;;;;16.90;7.68;;;15.80;99.90;;;;;;5066213;28;20028;-71
2021/07/09 05:27:46;;;;;;;16.85;7.82;;;15.90;99.90;;;;;;5068950;28;20029;-72
2021/07/09 05:30:14;;;;;;;14.55;6.63;;;15.90;99.90;;;;;;5081252;28;20047;-70
2021/07/09 05:32:42;;;;;;;17.10;7.60;;;16.00;99.90;;;;;;5061309;28;20119;-71
2021/07/09 05:35:08;;;;;;;11.82;6.03;;;16.00;99.90;;;;;;5058212;28;20032;-71
2021/07/09 05:37:33;;;;;;;14.02;6.22;;;16.20;99.90;;;;;;5077766;28;20044;-70
2021/07/09 05:39:59;;;;;;;14.27;6.40;;;16.40;99.90;;;;;;5078585;28;20103;-70
2021/07/09 05:42:25;;;;;;;13.98;6.30;;;16.70;99.90;;;;;;5075971;28;20412;-70
2021/07/09 05:44:50;;;;;;;13.80;6.38;;;16.90;99.90;;;;;;5080030;28;20541;-72
2021/07/09 05:47:17;;;;;;;14.77;6.70;;;17.10;99.90;;;;;;5076822;28;20058;-72
2021/07/09 05:49:43;;;;;;;15.68;6.88;;;17.30;99.90;;;;;;5076908;28;20139;-71
2021/07/09 05:52:09;;;;;;;11.73;6.18;;;17.50;99.90;;;;;;5080062;28;20535;-70
2021/07/09 05:54:35;;;;;;;13.30;6.82;;;17.70;99.90;;;;;;5076778;28;20106;-70
2021/07/09 05:57:01;;;;;;;10.25;5.32;;;17.80;99.90;;;;;;5086690;28;20488;-71
2021/07/09 05:59:27;;;;;;;10.38;4.88;;;18.00;99.90;;;;;;5084922;28;20110;-71
2021/07/09 06:01:53;;;;;;;10.30;5.13;;;18.20;99.90;;;;;;5081912;28;20089;-71
2021/07/09 06:04:19;;;;;;;8.23;4.57;;;18.20;99.90;;;;;;5080322;28;20531;-71
2021/07/09 06:06:45;;;;;;;10.55;5.10;;;18.40;99.90;;;;;;5083586;28;20480;-71
2021/07/09 06:09:11;;;;;;;8.77;4.38;;;18.40;99.90;;;;;;5081012;28;20029;-70
2021/07/09 06:11:36;;;;;;;12.68;4.50;;;18.50;99.90;;;;;;5080407;28;20036;-70
2021/07/09 06:14:03;;;;;;;12.13;5.03;;;18.60;99.90;;;;;;5081024;28;20080;-70
2021/07/09 06:16:29;;;;;;;9.82;4.15;;;18.80;99.90;;;;;;5080115;28;20051;-70
2021/07/09 06:18:55;;;;;;;13.18;4.78;;;18.90;99.90;;;;;;5082210;28;20037;-69
2021/07/09 06:21:21;;;;;;;8.38;4.75;;;19.00;99.90;;;;;;5083560;28;20035;-68
2021/07/09 06:23:46;;;;;;;11.63;4.13;;;19.10;99.90;;;;;;5084973;28;20117;-71
2021/07/09 06:26:12;;;;;;;8.18;4.07;;;19.30;99.90;;;;;;5065794;28;20176;-71
2021/07/09 06:28:38;;;;;;;9.70;4.53;;;19.50;99.90;;;;;;5083904;28;20028;-71
2021/07/09 06:31:03;;;;;;;10.27;4.60;;;19.60;99.90;;;;;;5080033;28;20105;-72
2021/07/09 06:33:29;;;;;;;9.48;4.32;;;19.80;99.90;;;;;;5082057;28;20036;-71
2021/07/09 06:35:55;;;;;;;8.35;4.45;;;19.90;99.90;;;;;;5083940;28;20555;-71
2021/07/09 06:38:21;;;;;;;7.97;4.45;;;20.10;99.90;;;;;;5080792;28;20051;-69
2021/07/09 06:40:47;;;;;;;8.02;4.38;;;20.20;99.90;;;;;;5076149;28;20389;-70
2021/07/09 06:43:13;;;;;;;8.20;4.13;;;20.50;99.90;;;;;;5082095;28;20032;-69
2021/07/09 06:45:40;;;;;;;8.27;4.05;;;20.60;99.90;;;;;;5079246;28;20032;-71
2021/07/09 06:48:06;;;;;;;10.10;4.40;;;20.70;99.90;;;;;;5083026;28;20028;-70
2021/07/09 06:50:36;;;;;;;7.55;4.00;;;21.00;99.90;;;;;;5080777;28;20032;-72
2021/07/09 06:53:03;;;;;;;8.82;4.43;;;21.20;99.90;;;;;;5084365;28;20028;-72
2021/07/09 06:55:28;;;;;;;7.30;4.03;;;21.40;99.90;;;;;;5082118;28;20036;-72
2021/07/09 06:57:54;;;;;;;7.65;3.92;;;21.80;99.90;;;;;;5055871;28;20039;-71
2021/07/09 07:00:20;;;;;;;9.23;3.78;;;22.10;99.90;;;;;;5080768;28;20031;-71
2021/07/09 07:02:47;;;;;;;7.55;4.05;;;22.30;99.90;;;;;;5083232;28;20033;-70
2021/07/09 07:05:14;;;;;;;8.63;4.10;;;22.60;99.90;;;;;;5082782;28;20025;-71
2021/07/09 07:07:39;;;;;;;8.20;4.30;;;23.60;99.90;;;;;;5075209;28;20021;-70
2021/07/09 07:10:07;;;;;;;7.97;4.53;;;24.30;99.90;;;;;;5083765;28;20025;-69
2021/07/09 07:12:33;;;;;;;11.20;5.07;;;24.60;99.90;;;;;;5084495;28;20096;-72
2021/07/09 07:14:58;;;;;;;9.57;4.68;;;24.60;99.90;;;;;;5074740;28;20021;-72
2021/07/09 07:17:24;;;;;;;8.82;4.00;;;25.40;99.90;;;;;;5047120;28;20090;-70
2021/07/09 07:19:49;;;;;;;12.77;4.80;;;26.20;99.90;;;;;;5072832;28;20040;-70
2021/07/09 07:22:15;;;;;;;8.35;5.20;;;26.40;99.90;;;;;;5079891;28;20174;-71
2021/07/09 07:24:41;;;;;;;9.55;5.15;;;27.10;99.10;;;;;;5081718;28;20047;-71
2021/07/09 07:27:06;;;;;;;11.35;4.70;;;27.50;99.50;;;;;;5064573;28;20039;-72
2021/07/09 07:29:32;;;;;;;10.30;4.50;;;28.20;97.40;;;;;;5080479;28;20048;-70
2021/07/09 07:31:58;;;;;;;11.48;4.68;;;28.30;95.70;;;;;;5086247;28;20028;-71
2021/07/09 07:34:24;;;;;;;7.57;5.07;;;28.60;94.70;;;;;;5083711;28;20060;-71
2021/07/09 07:36:49;;;;;;;10.45;5.72;;;29.30;92.00;;;;;;5079839;28;20036;-70
2021/07/09 07:39:15;;;;;;;14.18;6.10;;;29.40;91.30;;;;;;5078240;28;20041;-70
2021/07/09 07:41:41;;;;;;;8.10;4.80;;;30.00;89.50;;;;;;5070633;28;20033;-71
2021/07/09 07:44:07;;;;;;;9.48;4.57;;;30.30;86.40;;;;;;5068063;28;20060;-70
2021/07/09 07:46:33;;;;;;;10.63;4.90;;;30.50;85.00;;;;;;5071686;28;20040;-70
2021/07/09 07:48:59;;;;;;;6.38;4.82;;;31.10;81.80;;;;;;5056964;28;20032;-70
2021/07/09 07:51:25;;;;;;;9.43;4.95;;;31.60;77.40;;;;;;5072413;28;20036;-70
2021/07/09 07:53:52;;;;;;;9.27;5.93;;;31.80;76.10;;;;;;5072198;28;20089;-71
2021/07/09 07:56:18;;;;;;;9.20;6.07;;;32.30;73.20;;;;;;5073596;28;20063;-72
2021/07/09 07:58:45;;;;;;;11.27;6.25;;;32.60;72.10;;;;;;5072944;28;20040;-71
2021/07/09 08:01:11;;;;;;;8.55;6.80;;;32.50;71.50;;;;;;5070819;28;20028;-72
2021/07/09 08:03:37;;;;;;;10.25;6.32;;;32.80;69.50;;;;;;5080577;28;20526;-72
2021/07/09 08:06:04;;;;;;;14.93;6.43;;;32.60;68.90;;;;;;5073990;28;20033;-71
2021/07/09 08:08:30;;;;;;;13.27;7.35;;;32.50;67.70;;;;;;5075668;28;20041;-71
2021/07/09 08:10:56;;;;;;;9.25;6.40;;;32.00;68.40;;;;;;5081581;28;20032;-70
2021/07/09 08:13:21;;;;;;;12.32;7.45;;;30.70;71.10;;;;;;5080166;28;20097;-72
2021/07/09 08:15:47;;;;;;;10.45;6.80;;;30.60;72.50;;;;;;5073990;28;20047;-70
2021/07/09 08:18:12;;;;;;;12.32;6.20;;;31.20;71.80;;;;;;5070068;28;20489;-71
2021/07/09 08:20:40;;;;;;;8.13;6.28;;;31.60;70.90;;;;;;5074446;28;20450;-71
2021/07/09 08:23:05;;;;;;;12.45;7.85;;;32.10;68.40;;;;;;5078869;28;20170;-71
2021/07/09 08:25:31;;;;;;;9.25;6.72;;;32.10;68.30;;;;;;5078878;28;20439;-71
2021/07/09 08:27:57;;;;;;;10.80;6.95;;;31.00;69.80;;;;;;5080656;28;20029;-71
2021/07/09 08:30:22;;;;;;;11.93;6.45;;;30.70;72.20;;;;;;5080171;28;20031;-71
2021/07/09 08:32:48;;;;;;;10.13;7.05;;;31.30;70.30;;;;;;5074315;28;20568;-72
2021/07/09 08:35:13;;;;;;;11.40;6.88;;;31.60;68.40;;;;;;5076713;28;20021;-71
2021/07/09 08:37:39;;;;;;;9.73;6.93;;;31.70;69.30;;;;;;5080761;28;20067;-70
2021/07/09 08:40:06;;;;;;;9.52;7.40;;;31.80;69.30;;;;;;5070223;28;20393;-71
2021/07/09 08:42:32;;;;;;;11.23;7.90;;;31.70;68.20;;;;;;5062641;28;20058;-69
2021/07/09 08:44:57;;;;;;;12.35;7.75;;;30.80;69.50;;;;;;5079971;28;20131;-69
2021/07/09 08:47:28;;;;;;;8.60;6.03;;;29.60;70.80;;;;;;5082305;28;20028;-69
2021/07/09 08:49:54;;;;;;;11.93;6.82;;;28.80;73.80;;;;;;5059688;28;20036;-69
2021/07/09 08:52:20;;;;;;;9.82;6.32;;;28.20;75.40;;;;;;5078213;28;20044;-70
2021/07/09 08:54:45;;;;;;;7.93;5.72;;;27.50;76.80;;;;;;5082709;28;20560;-70
2021/07/09 08:57:16;;;;;;;9.80;5.63;;;26.80;78.80;;;;;;5084129;28;20450;-70
2021/07/09 08:59:41;;;;;;;9.00;4.85;;;26.50;79.80;;;;;;5080418;28;20533;-70
2021/07/09 09:02:07;;;;;;;6.80;4.20;;;25.90;82.50;;;;;;5079626;28;20032;-71
2021/07/09 09:04:35;;;;;;;6.82;4.47;;;26.00;83.90;;;;;;5079296;28;20155;-72
2021/07/09 09:07:03;;;;;;;9.82;4.53;;;26.50;82.20;;;;;;5057818;28;20121;-69
2021/07/09 09:09:29;;;;;;;6.63;4.22;;;27.20;81.60;;;;;;5071507;28;20032;-71
2021/07/09 09:12:14;;;;;;;11.50;4.65;;;27.70;79.10;;;;;;5079052;28;20502;-72
2021/07/09 09:14:49;;;;;;;7.53;4.30;;;28.10;79.30;;;;;;5072352;28;20036;-71
2021/07/09 09:17:33;;;;;;;7.22;4.28;;;28.40;77.60;;;;;;5073032;28;20031;-71
2021/07/09 09:20:05;;;;;;;8.55;4.40;;;28.50;75.80;;;;;;5078570;28;20424;-72
2021/07/09 09:22:34;;;;;;;10.07;4.80;;;28.60;76.70;;;;;;5068106;28;20028;-70
2021/07/09 09:25:00;;;;;;;7.53;4.73;;;28.50;76.60;;;;;;5074773;28;20037;-70
2021/07/09 09:27:25;;;;;;;11.27;5.07;;;28.10;77.00;;;;;;5075117;28;20190;-69
2021/07/09 09:29:51;;;;;;;8.95;4.93;;;27.60;78.90;;;;;;5074111;28;20055;-68
2021/07/09 09:32:17;;;;;;;8.00;4.53;;;27.10;80.90;;;;;;5077483;28;20412;-69
2021/07/09 09:34:52;;;;;;;9.15;4.13;;;27.10;80.70;;;;;;5078258;28;20523;-70
2021/07/09 09:37:19;;;;;;;7.32;4.20;;;27.00;80.70;;;;;;5079096;28;20040;-70
2021/07/09 09:39:47;;;;;;;8.88;4.40;;;27.00;81.70;;;;;;5070983;28;20039;-72
2021/07/09 09:42:21;;;;;;;8.23;4.22;;;26.90;81.60;;;;;;5069121;28;20043;-72
2021/07/09 09:44:49;;;;;;;10.57;4.10;;;26.70;82.10;;;;;;5069396;28;20038;-70
2021/07/09 09:47:19;;;;;;;7.65;4.07;;;26.30;83.20;;;;;;5083531;28;20028;-72
2021/07/09 09:49:50;;;;;;;7.18;3.55;;;26.30;83.80;;;;;;5081050;28;20373;-72
2021/07/09 09:52:37;;;;;;;6.07;2.95;;;26.10;81.80;;;;;;5066952;28;20040;-70
2021/07/09 09:55:11;;;;;;;10.23;3.67;;;26.20;81.40;;;;;;5063145;28;20420;-70
2021/07/09 09:57:38;;;;;;;7.38;3.10;;;26.40;81.40;;;;;;5067440;28;20037;-68
2021/07/09 10:00:06;;;;;;;8.60;3.53;;;26.30;82.60;;;;;;5075060;28;20469;-72
2021/07/09 10:02:31;;;;;;;5.72;2.95;;;26.10;81.40;;;;;;5071117;28;20028;-72
2021/07/09 10:04:57;;;;;;;5.00;3.17;;;25.70;83.60;;;;;;5073948;28;20033;-71
2021/07/09 10:07:23;;;;;;;7.88;3.97;;;25.40;84.10;;;;;;5083345;28;20046;-72
2021/07/09 10:09:49;;;;;;;9.35;4.07;;;25.50;83.70;;;;;;5085825;28;20044;-71
2021/07/09 10:12:19;;;;;;;6.72;3.55;;;25.60;82.90;;;;;;5072456;28;20032;-71
2021/07/09 10:14:47;;;;;;;6.15;3.10;;;25.60;86.20;;;;;;5068761;28;20535;-72
2021/07/09 10:17:16;;;;;;;5.90;3.13;;;25.90;82.80;;;;;;5068650;28;20039;-72
2021/07/09 10:19:46;;;;;;;5.47;3.47;;;26.10;83.70;;;;;;5069330;28;20067;-70
2021/07/09 10:22:12;;;;;;;5.07;2.78;;;26.00;82.20;;;;;;5070199;28;20050;-71
2021/07/09 10:24:45;;;;;;;5.15;2.25;;;26.00;83.40;;;;;;5067902;28;20082;-70
2021/07/09 10:27:12;;;;;;;6.47;3.05;;;26.10;82.30;;;;;;5068032;28;20040;-71
2021/07/09 10:29:47;;;;;;;8.40;3.28;;;26.30;84.10;;;;;;5072121;28;20033;-73
2021/07/09 10:32:28;;;;;;;6.72;3.05;;;26.50;80.90;;;;;;5054166;28;20044;-71
2021/07/09 10:34:54;;;;;;;6.55;3.05;;;26.50;81.40;;;;;;5065430;28;20032;-70
2021/07/09 10:37:21;;;;;;;6.60;3.42;;;26.30;80.40;;;;;;5068944;28;20037;-71
2021/07/09 10:40:08;;;;;;;4.93;2.40;;;26.20;81.80;;;;;;5071662;28;20407;-72
2021/07/09 10:42:40;;;;;;;5.38;2.67;;;26.20;83.30;;;;;;5065233;28;20165;-73
2021/07/09 10:45:09;;;;;;;5.40;2.38;;;25.90;82.90;;;;;;5072976;28;20055;-72
2021/07/09 10:47:36;;;;;;;7.68;3.72;;;25.60;83.00;;;;;;5072662;28;20071;-71
2021/07/09 10:50:06;;;;;;;6.00;2.92;;;25.60;84.50;;;;;;5073007;28;20033;-70
2021/07/09 10:52:46;;;;;;;3.38;1.98;;;25.70;83.30;;;;;;5067091;28;20124;-71
2021/07/09 10:55:27;;;;;;;4.07;2.20;;;25.60;83.60;;;;;;5069191;28;20059;-74
2021/07/09 10:58:04;;;;;;;9.52;2.88;;;25.70;82.70;;;;;;5076915;28;20033;-72
2021/07/09 11:00:30;;;;;;;5.53;2.40;;;25.70;83.30;;;;;;5056889;28;20036;-72
2021/07/09 11:03:04;;;;;;;6.07;2.67;;;25.70;83.20;;;;;;5082130;28;20044;-73
2021/07/09 11:05:59;;;;;;;5.03;2.33;;;25.80;84.10;;;;;;5074103;28;20032;-71
2021/07/09 11:08:31;;;;;;;5.78;1.90;;;26.10;81.90;;;;;;5054722;28;20033;-72
2021/07/09 11:11:01;;;;;;;9.13;2.58;;;26.20;82.20;;;;;;5077385;28;20050;-72
2021/07/09 11:13:42;;;;;;;5.22;2.50;;;26.20;81.80;;;;;;5076256;28;20043;-72
2021/07/09 11:16:35;;;;;;;5.72;2.45;;;26.50;80.00;;;;;;5059330;28;20032;-71
2021/07/09 11:19:03;;;;;;;4.28;2.05;;;26.50;78.80;;;;;;5056895;28;20362;-72
2021/07/09 11:21:32;;;;;;;4.60;2.35;;;26.40;79.30;;;;;;5073245;28;20024;-70
2021/07/09 11:24:03;;;;;;;3.65;2.30;;;26.20;81.60;;;;;;5077498;28;20056;-71
2021/07/09 11:26:31;;;;;;;6.78;2.33;;;26.40;81.40;;;;;;5075068;28;20446;-72
2021/07/09 11:28:57;;;;;;;5.18;2.50;;;26.40;81.40;;;;;;5069948;28;20035;-72
2021/07/09 11:31:37;;;;;;;4.70;2.67;;;26.70;79.80;;;;;;5073674;28;20020;-71
2021/07/09 11:34:04;;;;;;;;;;;26.80;80.30;;;;;;5052393;28;20028;-71
2021/07/09 11:36:51;;;;;;;6.50;2.22;;;26.80;78.40;;;;;;5073786;28;19936;-73
2021/07/09 11:39:19;;;;;;;3.47;1.75;;;27.00;79.00;;;;;;5074300;28;20039;-71
2021/07/09 11:41:58;;;;;;;3.13;2.10;;;26.90;79.80;;;;;;5080342;28;20072;-70
2021/07/09 11:44:27;;;;;;;6.60;1.65;;;26.80;76.60;;;;;;5073081;28;20183;-71
2021/07/09 11:46:55;;;;;;;2.15;1.40;;;26.60;74.50;;;;;;5072599;28;20078;-71
2021/07/09 11:49:33;;;;;;;3.92;1.85;;;26.40;77.00;;;;;;5074654;28;20039;-72
2021/07/09 11:52:02;;;;;;;4.90;1.75;;;26.50;78.30;;;;;;5069421;28;20464;-72
2021/07/09 11:54:31;;;;;;;2.03;1.45;;;26.40;79.30;;;;;;5077478;28;20145;-73
2021/07/09 11:57:01;;;;;;;3.80;1.70;;;26.30;78.40;;;;;;5080174;28;20123;-72
2021/07/09 11:59:27;;;;;;;;;;;26.30;80.00;;;;;;5078434;28;20749;-72
2021/07/09 12:02:15;;;;;;;4.28;2.05;;;26.30;78.50;;;;;;5078826;28;20015;-73
2021/07/09 12:04:49;;;;;;;4.57;1.88;;;26.30;79.10;;;;;;5078615;28;20032;-73
2021/07/09 12:07:19;;;;;;;3.10;1.65;;;26.40;77.70;;;;;;5077951;28;20039;-72
2021/07/09 12:09:47;;;;;;;2.55;1.15;;;26.40;76.90;;;;;;5081551;28;20033;-71
2021/07/09 12:12:13;;;;;;;2.75;1.33;;;26.30;74.60;;;;;;5061453;28;20043;-72
2021/07/09 12:15:10;;;;;;;2.35;1.30;;;26.40;74.30;;;;;;5079382;28;20075;-72
2021/07/09 12:17:38;;;;;;;2.97;1.60;;;26.30;74.20;;;;;;5060837;28;20040;-72
2021/07/09 12:20:19;;;;;;;4.38;1.65;;;26.20;76.00;;;;;;5079514;28;20457;-70
2021/07/09 12:22:49;;;;;;;3.75;1.88;;;26.30;75.90;;;;;;5080753;28;20043;-71
2021/07/09 12:25:18;;;;;;;3.25;1.80;;;26.50;75.30;;;;;;5078836;28;20028;-70
2021/07/09 12:27:44;;;;;;;3.83;1.48;;;26.50;76.10;;;;;;5073509;28;20469;-70
2021/07/09 12:30:14;;;;;;;3.97;2.08;;;26.60;74.70;;;;;;5077784;28;20036;-73
2021/07/09 12:33:00;;;;;;;3.35;1.80;;;26.60;75.70;;;;;;5078903;28;20067;-72
2021/07/09 12:35:27;;;;;;;5.38;1.70;;;26.50;77.20;;;;;;5056235;28;20032;-71
2021/07/09 12:38:09;;;;;;;2.38;1.42;;;26.50;77.20;;;;;;5066781;28;20048;-71
2021/07/09 12:40:35;;;;;;;2.25;1.48;;;26.50;75.40;;;;;;5069360;28;20377;-70
2021/07/09 12:43:19;;;;;;;4.30;1.83;;;26.40;75.80;;;;;;5063931;28;20115;-71
2021/07/09 12:45:56;;;;;;;5.85;1.30;;;26.50;78.50;;;;;;5068743;28;20492;-71